Time;durP1;ratioP1;P1;durP2;ratioP2;P2;SDS_P1;SDS_P2;PMS_P1;PMS_P2;Temp;Humidity;BMP_temperature;BMP_pressure;BME280_temperature;BME280_humidity;BME280_pressure;Samples;Min_cycle;Max_cycle;Signal;HPM_P1;HPM_P2
2023/04/26 00:01:00;;;;;;;;;;;3.90;99.90;;;;;;5176889;27;19907;-38
2023/04/26 00:03:26;;;;;;;;;;;3.90;99.90;;;;;;5176814;27;20284;-37
2023/04/26 00:05:51;;;;;;;;;;;3.80;99.90;;;;;;5176075;27;19932;-37
2023/04/26 00:08:17;;;;;;;;;;;3.80;99.90;;;;;;5176599;27;19950;-37
2023/04/26 00:10:42;;;;;;;;;;;3.90;99.90;;;;;;5176582;27;19922;-37
2023/04/26 00:13:07;;;;;;;;;;;3.80;99.90;;;;;;5175820;27;19913;-37
2023/04/26 00:15:33;;;;;;;;;;;3.80;99.90;;;;;;5176662;27;19911;-37
2023/04/26 00:17:58;;;;;;;;;;;3.80;99.90;;;;;;5176729;27;19907;-37
2023/04/26 00:20:24;;;;;;;;;;;3.80;99.90;;;;;;5175649;27;19914;-37
2023/04/26 00:22:49;;;;;;;;;;;3.80;99.90;;;;;;5176147;27;19907;-37
2023/04/26 00:25:15;;;;;;;;;;;3.80;99.90;;;;;;5176357;27;20002;-36
2023/04/26 00:27:40;;;;;;;;;;;3.90;99.90;;;;;;5175632;27;19907;-37
2023/04/26 00:30:06;;;;;;;;;;;3.80;99.90;;;;;;5175842;27;19922;-37
2023/04/26 00:32:34;;;;;;;;;;;3.80;99.90;;;;;;5176396;27;19914;-37
2023/04/26 00:34:59;;;;;;;;;;;3.80;99.90;;;;;;5175372;27;19907;-37
2023/04/26 00:37:25;;;;;;;;;;;3.80;99.90;;;;;;5176054;27;19907;-38
2023/04/26 00:39:50;;;;;;;;;;;3.80;99.90;;;;;;5175372;27;19911;-38
2023/04/26 00:42:16;;;;;;;;;;;3.80;99.90;;;;;;5175972;27;20520;-37
2023/04/26 00:44:41;;;;;;;;;;;3.80;99.90;;;;;;5175988;27;19907;-37
2023/04/26 00:47:07;;;;;;;;;;;3.80;99.90;;;;;;5175140;27;19906;-37
2023/04/26 00:49:32;;;;;;;;;;;3.90;99.90;;;;;;5175921;27;19914;-38
2023/04/26 00:51:58;;;;;;;;;;;3.90;99.90;;;;;;5175667;27;19918;-38
2023/04/26 00:54:24;;;;;;;;;;;3.90;99.90;;;;;;5174663;27;19910;-37
2023/04/26 00:56:51;;;;;;;;;;;4.00;99.90;;;;;;5175587;27;19917;-37
2023/04/26 00:59:18;;;;;;;;;;;4.00;99.90;;;;;;5175606;27;20361;-37
2023/04/26 01:01:43;;;;;;;;;;;4.00;99.90;;;;;;5174948;27;19911;-37
2023/04/26 01:04:09;;;;;;;;;;;4.00;99.90;;;;;;5175576;27;19914;-37
2023/04/26 01:06:37;;;;;;;;;;;3.90;99.90;;;;;;5175573;27;19913;-36
2023/04/26 01:09:14;;;;;;;;;;;3.90;99.90;;;;;;5174122;27;19914;-38
2023/04/26 01:11:40;;;;;;;;;;;3.90;99.90;;;;;;5172258;27;19925;-37
2023/04/26 01:14:07;;;;;;;;;;;3.90;99.90;;;;;;5175422;27;19907;-37
2023/04/26 01:16:33;;;;;;;;;;;3.90;99.90;;;;;;5165561;27;19919;-37
2023/04/26 01:19:05;;;;;;;;;;;3.80;99.90;;;;;;5167240;27;20302;-37
2023/04/26 01:21:32;;;;;;;;;;;3.80;99.90;;;;;;5175497;27;20249;-37
2023/04/26 01:23:57;;;;;;;;;;;3.70;99.90;;;;;;5169246;27;20006;-37
2023/04/26 01:26:23;;;;;;;;;;;3.60;99.90;;;;;;5175421;27;19910;-37
2023/04/26 01:28:48;;;;;;;;;;;3.60;99.90;;;;;;5175398;27;19914;-36
2023/04/26 01:31:13;;;;;;;;;;;3.60;99.90;;;;;;5170523;27;20611;-37
2023/04/26 01:33:39;;;;;;;;;;;3.60;99.90;;;;;;5154375;27;19907;-37
2023/04/26 01:36:09;;;;;;;;;;;3.60;99.90;;;;;;5153583;27;19911;-37
2023/04/26 01:38:34;;;;;;;;;;;3.60;99.90;;;;;;5154362;27;19958;-37
2023/04/26 01:41:00;;;;;;;;;;;3.50;99.90;;;;;;5154380;27;19947;-38
2023/04/26 01:43:26;;;;;;;;;;;3.50;99.90;;;;;;5153626;27;20337;-37
2023/04/26 01:45:52;;;;;;;;;;;3.50;99.90;;;;;;5154407;27;19954;-36
2023/04/26 01:48:17;;;;;;;;;;;3.50;99.90;;;;;;5154256;27;19938;-37
2023/04/26 01:50:43;;;;;;;;;;;3.40;99.90;;;;;;5153434;27;19962;-37
2023/04/26 01:53:08;;;;;;;;;;;3.30;99.90;;;;;;5157617;27;19918;-38
2023/04/26 01:55:33;;;;;;;;;;;3.40;99.90;;;;;;5175262;27;19935;-37
2023/04/26 01:57:59;;;;;;;;;;;3.40;99.90;;;;;;5174306;27;20357;-37
2023/04/26 02:00:25;;;;;;;;;;;3.40;99.90;;;;;;5174912;27;19907;-37
2023/04/26 02:02:53;;;;;;;;;;;3.40;99.90;;;;;;5174580;27;19911;-37
2023/04/26 02:05:19;;;;;;;;;;;3.30;99.90;;;;;;5174044;27;20440;-37
2023/04/26 02:07:44;;;;;;;;;;;3.40;99.90;;;;;;5175046;27;19914;-37
2023/04/26 02:10:09;;;;;;;;;;;3.40;99.90;;;;;;5174570;27;19966;-38
2023/04/26 02:12:35;;;;;;;;;;;3.40;99.90;;;;;;5174221;27;19907;-36
2023/04/26 02:15:00;;;;;;;;;;;3.50;99.90;;;;;;5156203;27;19989;-36
2023/04/26 02:17:28;;;;;;;;;;;3.50;99.90;;;;;;5174665;27;19951;-37
2023/04/26 02:19:53;;;;;;;;;;;3.50;99.90;;;;;;5174169;27;20005;-37
2023/04/26 02:22:20;;;;;;;;;;;3.60;99.90;;;;;;5176926;27;19942;-37
2023/04/26 02:24:46;;;;;;;;;;;3.60;99.90;;;;;;5178770;27;19963;-37
2023/04/26 02:27:11;;;;;;;;;;;3.70;99.90;;;;;;5177894;27;19933;-37
2023/04/26 02:29:37;;;;;;;;;;;3.70;99.90;;;;;;5178696;27;19960;-36
2023/04/26 02:32:03;;;;;;;;;;;3.80;99.90;;;;;;5178404;27;20001;-37
2023/04/26 02:34:28;;;;;;;;;;;3.90;99.90;;;;;;5177805;27;19953;-37
2023/04/26 02:36:54;;;;;;;;;;;3.80;99.90;;;;;;5178540;27;19970;-37
2023/04/26 02:39:19;;;;;;;;;;;3.90;99.90;;;;;;5177592;27;19949;-37
2023/04/26 02:41:45;;;;;;;;;;;3.90;99.90;;;;;;5178430;27;19907;-37
2023/04/26 02:44:10;;;;;;;;;;;3.90;99.90;;;;;;5178336;27;19959;-37
2023/04/26 02:46:36;;;;;;;;;;;3.80;99.90;;;;;;5177459;27;20403;-37
2023/04/26 02:49:01;;;;;;;;;;;3.80;99.90;;;;;;5178254;27;19913;-36
2023/04/26 02:51:27;;;;;;;;;;;3.70;99.90;;;;;;5178250;27;20010;-37
2023/04/26 02:53:52;;;;;;;;;;;3.70;99.90;;;;;;5176769;27;19962;-38
2023/04/26 02:56:18;;;;;;;;;;;3.60;99.90;;;;;;5177767;27;19911;-37
2023/04/26 02:58:44;;;;;;;;;;;3.60;99.90;;;;;;5178027;27;20005;-37
2023/04/26 03:01:11;;;;;;;;;;;3.60;99.90;;;;;;5177082;27;19971;-36
2023/04/26 03:03:36;;;;;;;;;;;3.60;99.90;;;;;;5177977;27;19993;-38
2023/04/26 03:06:03;;;;;;;;;;;3.50;99.90;;;;;;5178099;27;20006;-37
2023/04/26 03:08:28;;;;;;;;;;;3.50;99.90;;;;;;5177028;27;19907;-38
2023/04/26 03:10:53;;;;;;;;;;;3.50;99.90;;;;;;5177839;27;19919;-36
2023/04/26 03:13:21;;;;;;;;;;;3.50;99.90;;;;;;5177826;27;20406;-37
2023/04/26 03:15:47;;;;;;;;;;;3.40;99.90;;;;;;5176743;27;20416;-38
2023/04/26 03:18:13;;;;;;;;;;;3.40;99.90;;;;;;5177756;27;19906;-37
2023/04/26 03:20:38;;;;;;;;;;;3.40;99.90;;;;;;5177766;27;19959;-37
2023/04/26 03:23:04;;;;;;;;;;;3.40;99.90;;;;;;5176577;27;19938;-37
2023/04/26 03:25:29;;;;;;;;;;;3.40;99.90;;;;;;5158927;27;19907;-37
2023/04/26 03:27:55;;;;;;;;;;;3.40;99.90;;;;;;5177582;27;19907;-37
2023/04/26 03:30:20;;;;;;;;;;;3.40;99.90;;;;;;5176265;27;19919;-37
2023/04/26 03:32:48;;;;;;;;;;;3.40;99.90;;;;;;5176288;27;20293;-37
2023/04/26 03:35:13;;;;;;;;;;;3.40;99.90;;;;;;5177386;27;20159;-37
2023/04/26 03:37:39;;;;;;;;;;;3.40;99.90;;;;;;5176687;27;20361;-37
2023/04/26 03:40:08;;;;;;;;;;;3.50;99.90;;;;;;5177226;27;19918;-38
2023/04/26 03:42:34;;;;;;;;;;;3.50;99.90;;;;;;5176515;27;19959;-38
2023/04/26 03:45:00;;;;;;;;;;;3.50;99.90;;;;;;5176851;27;19911;-37
2023/04/26 03:47:26;;;;;;;;;;;3.50;99.90;;;;;;5177300;27;19975;-37
2023/04/26 03:49:51;;;;;;;;;;;3.50;99.90;;;;;;5176308;27;19911;-37
2023/04/26 03:52:17;;;;;;;;;;;3.50;99.90;;;;;;5176673;27;19911;-37
2023/04/26 03:54:42;;;;;;;;;;;3.50;99.90;;;;;;5177062;27;20361;-36
2023/04/26 03:57:07;;;;;;;;;;;3.50;99.90;;;;;;5176175;27;19938;-37
2023/04/26 03:59:33;;;;;;;;;;;3.40;99.90;;;;;;5176825;27;19913;-37
2023/04/26 04:01:58;;;;;;;;;;;3.50;99.90;;;;;;5176871;27;20342;-37
2023/04/26 04:04:24;;;;;;;;;;;3.40;99.90;;;;;;5176092;27;19907;-36
2023/04/26 04:06:50;;;;;;;;;;;3.40;99.90;;;;;;5176841;27;19993;-37
2023/04/26 04:09:16;;;;;;;;;;;3.30;99.90;;;;;;5176700;27;19950;-36
2023/04/26 04:11:41;;;;;;;;;;;3.30;99.90;;;;;;5175816;27;19962;-37
2023/04/26 04:14:07;;;;;;;;;;;3.20;99.90;;;;;;5176586;27;19910;-37
2023/04/26 04:16:32;;;;;;;;;;;3.20;99.90;;;;;;5176643;27;20369;-37
2023/04/26 04:18:58;;;;;;;;;;;3.30;99.90;;;;;;5175465;27;19907;-37
2023/04/26 04:21:23;;;;;;;;;;;3.40;99.90;;;;;;5176459;27;19918;-37
2023/04/26 04:23:49;;;;;;;;;;;3.40;99.90;;;;;;5175695;27;19914;-37
2023/04/26 04:26:15;;;;;;;;;;;3.50;99.90;;;;;;5175505;27;19922;-37
2023/04/26 04:28:40;;;;;;;;;;;3.50;99.90;;;;;;5176097;27;19907;-37
2023/04/26 04:31:08;;;;;;;;;;;3.50;99.90;;;;;;5175864;27;19925;-38
2023/04/26 04:33:34;;;;;;;;;;;3.60;99.90;;;;;;5175508;27;19917;-38
2023/04/26 04:35:59;;;;;;;;;;;3.60;99.90;;;;;;5176172;27;19906;-38
2023/04/26 04:38:25;;;;;;;;;;;3.60;99.90;;;;;;5176245;27;20315;-37
2023/04/26 04:40:51;;;;;;;;;;;3.60;99.90;;;;;;5175281;27;19907;-37
2023/04/26 04:43:16;;;;;;;;;;;3.60;99.90;;;;;;5175539;27;19932;-36
2023/04/26 04:45:42;;;;;;;;;;;3.70;99.90;;;;;;5175504;27;20345;-37
2023/04/26 04:48:07;;;;;;;;;;;3.60;99.90;;;;;;5175184;27;19906;-37
2023/04/26 04:50:34;;;;;;;;;;;3.60;99.90;;;;;;5175898;27;19914;-37
2023/04/26 04:53:00;;;;;;;;;;;3.60;99.90;;;;;;5174738;27;19911;-37
2023/04/26 04:55:25;;;;;;;;;;;3.60;99.90;;;;;;5175921;27;19941;-37
2023/04/26 04:57:51;;;;;;;;;;;3.60;99.90;;;;;;5175717;27;19906;-37
2023/04/26 05:00:16;;;;;;;;;;;3.50;99.90;;;;;;5174888;27;19907;-37
2023/04/26 05:02:42;;;;;;;;;;;3.50;99.90;;;;;;5175785;27;20253;-37
2023/04/26 05:05:09;;;;;;;;;;;3.50;99.90;;;;;;5175654;27;19907;-37
2023/04/26 05:07:34;;;;;;;;;;;3.50;99.90;;;;;;5175156;27;19963;-37
2023/04/26 05:10:00;;;;;;;;;;;3.50;99.90;;;;;;5175414;27;19944;-37
2023/04/26 05:12:25;;;;;;;;;;;3.40;99.90;;;;;;5175490;27;19914;-37
2023/04/26 05:14:51;;;;;;;;;;;3.50;99.90;;;;;;5174777;27;19914;-37
2023/04/26 05:17:16;;;;;;;;;;;3.60;99.90;;;;;;5175455;27;19906;-37
2023/04/26 05:19:42;;;;;;;;;;;3.60;99.90;;;;;;5175497;27;19930;-37
2023/04/26 05:22:07;;;;;;;;;;;3.60;99.90;;;;;;5174372;27;20059;-37
2023/04/26 05:24:33;;;;;;;;;;;3.70;99.90;;;;;;5175206;27;19911;-37
2023/04/26 05:26:58;;;;;;;;;;;3.70;99.90;;;;;;5175334;27;19907;-37
2023/04/26 05:29:28;;;;;;;;;;;3.80;99.90;;;;;;5174525;27;20331;-37
2023/04/26 05:31:53;;;;;;;;;;;3.80;99.90;;;;;;5174940;27;20369;-38
2023/04/26 05:34:18;;;;;;;;;;;3.80;99.90;;;;;;5174037;27;19918;-37
2023/04/26 05:36:44;;;;;;;;;;;3.90;99.90;;;;;;5173601;27;20352;-37
2023/04/26 05:39:11;;;;;;;;;;;3.90;99.90;;;;;;5171712;27;19911;-37
2023/04/26 05:41:36;;;;;;;;;;;4.00;99.90;;;;;;5168912;27;19907;-37
2023/04/26 05:44:02;;;;;;;;;;;4.00;99.90;;;;;;5172248;27;19978;-37
2023/04/26 05:46:27;;;;;;;;;;;4.00;99.90;;;;;;5174197;27;20322;-38
2023/04/26 05:48:53;;;;;;;;;;;4.00;99.90;;;;;;5174451;27;19906;-37
2023/04/26 05:51:19;;;;;;;;;;;4.00;99.90;;;;;;5173160;27;20381;-38
2023/04/26 05:53:45;;;;;;;;;;;4.00;99.90;;;;;;5174249;27;19914;-38
2023/04/26 05:56:10;;;;;;;;;;;4.00;99.90;;;;;;5176209;27;19907;-37
2023/04/26 05:58:36;;;;;;;;;;;3.90;99.90;;;;;;5177355;27;20381;-37
2023/04/26 06:01:01;;;;;;;;;;;3.90;99.90;;;;;;5174563;27;19965;-37
2023/04/26 06:03:27;;;;;;;;;;;3.90;99.90;;;;;;5174681;27;20375;-37
2023/04/26 06:05:52;;;;;;;;;;;3.90;99.90;;;;;;5174580;27;19918;-37
2023/04/26 06:08:17;;;;;;;;;;;4.00;99.90;;;;;;5178264;27;20357;-37
2023/04/26 06:10:43;;;;;;;;;;;4.00;99.90;;;;;;5173043;27;19919;-38
2023/04/26 06:13:08;;;;;;;;;;;4.10;99.90;;;;;;5178390;27;20311;-37
2023/04/26 06:15:34;;;;;;;;;;;4.20;99.90;;;;;;5178414;27;19914;-37
2023/04/26 06:18:00;;;;;;;;;;;4.30;99.90;;;;;;5177219;27;19989;-37
2023/04/26 06:20:25;;;;;;;;;;;4.40;99.90;;;;;;5178413;27;19907;-37
2023/04/26 06:22:51;;;;;;;;;;;4.50;99.90;;;;;;5178582;27;20021;-38
2023/04/26 06:25:16;;;;;;;;;;;4.60;99.90;;;;;;5159114;27;19914;-37
2023/04/26 06:27:42;;;;;;;;;;;4.80;99.90;;;;;;5177324;27;20494;-37
2023/04/26 06:30:07;;;;;;;;;;;4.90;99.90;;;;;;5177393;27;19918;-38
2023/04/26 06:32:33;;;;;;;;;;;5.00;99.90;;;;;;5177036;27;19950;-37
2023/04/26 06:34:58;;;;;;;;;;;5.10;99.90;;;;;;5177850;27;19911;-37
2023/04/26 06:37:24;;;;;;;;;;;5.20;99.90;;;;;;5178475;27;19914;-37
2023/04/26 06:39:50;;;;;;;;;;;5.30;99.90;;;;;;5177561;27;20384;-37
2023/04/26 06:42:15;;;;;;;;;;;5.50;99.90;;;;;;5177653;27;19914;-39
2023/04/26 06:44:41;;;;;;;;;;;5.60;99.90;;;;;;5177439;27;19917;-37
2023/04/26 06:47:08;;;;;;;;;;;5.70;99.90;;;;;;5175734;27;19918;-38
2023/04/26 06:49:34;;;;;;;;;;;5.80;99.90;;;;;;5155976;27;20274;-38
2023/04/26 06:51:59;;;;;;;;;;;5.90;99.90;;;;;;5157101;27;19915;-37
2023/04/26 06:54:28;;;;;;;;;;;6.00;99.90;;;;;;5156584;27;20272;-37
2023/04/26 06:56:54;;;;;;;;;;;6.10;99.90;;;;;;5157387;27;19907;-37
2023/04/26 06:59:19;;;;;;;;;;;6.10;99.90;;;;;;5157158;27;20250;-37
2023/04/26 07:01:45;;;;;;;;;;;6.20;99.90;;;;;;5167622;27;20459;-37
2023/04/26 07:04:10;;;;;;;;;;;6.20;99.90;;;;;;5170802;27;19914;-39
2023/04/26 07:06:36;;;;;;;;;;;6.20;99.90;;;;;;5152755;27;19911;-37
2023/04/26 07:09:02;;;;;;;;;;;6.40;99.90;;;;;;5159495;27;19911;-38
2023/04/26 07:11:28;;;;;;;;;;;6.50;99.90;;;;;;5174089;27;19919;-38
2023/04/26 07:13:54;;;;;;;;;;;6.70;99.90;;;;;;5175890;27;19911;-38
2023/04/26 07:16:20;;;;;;;;;;;6.90;99.90;;;;;;5177307;27;20474;-38
2023/04/26 07:18:47;;;;;;;;;;;7.00;99.90;;;;;;5175705;27;19911;-38
2023/04/26 07:21:12;;;;;;;;;;;7.20;99.90;;;;;;5176649;27;19961;-39
2023/04/26 07:23:38;;;;;;;;;;;7.30;99.90;;;;;;5177616;27;20420;-38
2023/04/26 07:26:03;;;;;;;;;;;7.30;99.90;;;;;;5177440;27;19907;-37
2023/04/26 07:28:29;;;;;;;;;;;7.30;99.90;;;;;;5176797;27;19907;-38
2023/04/26 07:30:55;;;;;;;;;;;7.30;99.90;;;;;;5167522;27;20270;-37
2023/04/26 07:33:20;;;;;;;;;;;7.30;99.90;;;;;;5177240;27;19907;-38
2023/04/26 07:35:52;;;;;;;;;;;7.30;99.90;;;;;;5171465;27;19993;-38
2023/04/26 07:38:18;;;;;;;;;;;7.40;99.90;;;;;;5177198;27;19913;-37
2023/04/26 07:40:43;;;;;;;;;;;7.60;99.90;;;;;;5177323;27;19910;-38
2023/04/26 07:43:09;;;;;;;;;;;7.70;99.90;;;;;;5176365;27;20379;-38
2023/04/26 07:45:34;;;;;;;;;;;7.80;99.90;;;;;;5177309;27;20005;-37
2023/04/26 07:48:00;;;;;;;;;;;7.90;99.90;;;;;;5177026;27;19950;-37
2023/04/26 07:50:25;;;;;;;;;;;8.00;99.90;;;;;;5175103;27;19918;-38
2023/04/26 07:52:51;;;;;;;;;;;8.00;99.90;;;;;;5176177;27;19922;-38
2023/04/26 07:55:16;;;;;;;;;;;7.90;99.90;;;;;;5170892;27;19917;-39
2023/04/26 07:57:42;;;;;;;;;;;7.90;99.90;;;;;;5165640;27;19907;-37
2023/04/26 08:00:11;;;;;;;;;;;7.90;99.90;;;;;;5165126;27;19911;-37
2023/04/26 08:02:36;;;;;;;;;;;8.00;99.90;;;;;;5176335;27;20262;-38
2023/04/26 08:05:01;;;;;;;;;;;8.00;99.90;;;;;;5175106;27;19918;-38
2023/04/26 08:07:27;;;;;;;;;;;8.10;99.90;;;;;;5176375;27;20038;-37
2023/04/26 08:09:52;;;;;;;;;;;8.10;99.90;;;;;;5157103;27;19996;-38
2023/04/26 08:12:18;;;;;;;;;;;8.20;99.90;;;;;;5155584;27;20262;-38
2023/04/26 08:14:43;;;;;;;;;;;8.20;99.90;;;;;;5153986;27;19964;-37
2023/04/26 08:17:09;;;;;;;;;;;8.40;99.90;;;;;;5168578;27;20485;-37
2023/04/26 08:19:35;;;;;;;;;;;8.50;99.90;;;;;;5176437;27;19911;-38
2023/04/26 08:22:00;;;;;;;;;;;8.70;99.90;;;;;;5158384;27;19907;-38
2023/04/26 08:24:26;;;;;;;;;;;8.70;99.90;;;;;;5154929;27;19907;-38
2023/04/26 08:26:51;;;;;;;;;;;8.80;99.90;;;;;;5155443;27;20255;-38
2023/04/26 08:29:17;;;;;;;;;;;8.80;99.90;;;;;;5174547;27;19907;-37
2023/04/26 08:31:43;;;;;;;;;;;8.90;99.90;;;;;;5175171;27;20369;-38
2023/04/26 08:34:10;;;;;;;;;;;9.00;99.90;;;;;;5175924;27;19918;-38
2023/04/26 08:36:36;;;;;;;;;;;9.10;99.90;;;;;;5175780;27;20361;-38
2023/04/26 08:39:01;;;;;;;;;;;9.10;99.90;;;;;;5170226;27;19918;-38
2023/04/26 08:41:27;;;;;;;;;;;9.20;99.90;;;;;;5161500;27;19907;-37
2023/04/26 08:43:54;;;;;;;;;;;9.10;99.90;;;;;;5155248;27;19908;-38
2023/04/26 08:46:21;;;;;;;;;;;9.20;99.90;;;;;;5154302;27;19950;-37
2023/04/26 08:48:54;;;;;;;;;;;9.20;99.90;;;;;;5155152;27;19914;-37
2023/04/26 08:51:20;;;;;;;;;;;9.20;99.90;;;;;;5154959;27;19915;-38
2023/04/26 08:53:46;;;;;;;;;;;9.20;99.90;;;;;;5154339;27;19919;-38
2023/04/26 08:56:12;;;;;;;;;;;9.20;99.90;;;;;;5154837;27;20017;-38
2023/04/26 08:58:37;;;;;;;;;;;9.20;99.90;;;;;;5154973;27;19959;-38
2023/04/26 09:01:04;;;;;;;;;;;9.20;99.90;;;;;;5153972;27;20001;-37
2023/04/26 09:03:29;;;;;;;;;;;9.20;99.90;;;;;;5154852;27;19946;-38
2023/04/26 09:05:55;;;;;;;;;;;9.20;99.90;;;;;;5163019;27;19976;-38
2023/04/26 09:08:21;;;;;;;;;;;9.20;99.90;;;;;;5174595;27;20363;-38
2023/04/26 09:10:46;;;;;;;;;;;9.20;99.90;;;;;;5175570;27;19911;-37
2023/04/26 09:13:13;;;;;;;;;;;9.40;99.90;;;;;;5157234;27;19933;-38
2023/04/26 09:15:38;;;;;;;;;;;9.50;99.90;;;;;;5154907;27;19911;-38
2023/04/26 09:18:17;;;;;;;;;;;9.50;99.90;;;;;;5153815;27;20378;-38
2023/04/26 09:20:43;;;;;;;;;;;9.60;99.90;;;;;;5154610;27;19914;-38
2023/04/26 09:23:09;;;;;;;;;;;9.80;99.90;;;;;;5164403;27;19964;-39
2023/04/26 09:25:35;;;;;;;;;;;9.90;99.90;;;;;;5155299;27;19911;-38
2023/04/26 09:28:01;;;;;;;;;;;10.00;99.90;;;;;;5154511;27;19907;-41
2023/04/26 09:30:27;;;;;;;;;;;10.00;99.90;;;;;;5172850;27;19926;-38
2023/04/26 09:33:02;;;;;;;;;;;10.10;99.90;;;;;;5155581;27;19911;-38
2023/04/26 09:35:41;;;;;;;;;;;10.10;99.90;;;;;;5159202;27;19928;-38
2023/04/26 09:38:07;;;;;;;;;;;10.00;99.90;;;;;;5175672;27;19929;-38
2023/04/26 09:40:34;;;;;;;;;;;10.00;99.90;;;;;;5169920;27;19911;-37
2023/04/26 09:43:00;;;;;;;;;;;10.00;99.90;;;;;;5175281;27;19951;-37
2023/04/26 09:45:26;;;;;;;;;;;9.90;99.90;;;;;;5175729;27;19911;-37
2023/04/26 09:47:51;;;;;;;;;;;9.90;99.90;;;;;;5175862;27;19914;-37
2023/04/26 09:50:26;;;;;;;;;;;10.00;99.90;;;;;;5174715;27;20318;-38
2023/04/26 09:52:52;;;;;;;;;;;10.20;99.90;;;;;;5175637;27;19973;-37
2023/04/26 09:55:36;;;;;;;;;;;10.40;99.90;;;;;;5175380;27;20337;-39
2023/04/26 09:58:11;;;;;;;;;;;10.40;99.90;;;;;;5175750;27;20001;-38
2023/04/26 10:00:37;;;;;;;;;;;10.10;99.90;;;;;;5175719;27;20087;-38
2023/04/26 10:03:04;;;;;;;;;;;9.90;99.90;;;;;;5163784;27;20371;-38
2023/04/26 10:05:31;;;;;;;;;;;9.80;99.90;;;;;;5156446;27;19954;-37
2023/04/26 10:07:56;;;;;;;;;;;9.70;99.90;;;;;;5174880;27;19914;-37
2023/04/26 10:10:22;;;;;;;;;;;9.50;99.90;;;;;;5173894;27;19907;-37
2023/04/26 10:12:47;;;;;;;;;;;9.40;99.90;;;;;;5174608;27;20189;-38
2023/04/26 10:15:13;;;;;;;;;;;9.30;99.90;;;;;;5174614;27;19914;-38
2023/04/26 10:17:39;;;;;;;;;;;9.30;99.90;;;;;;5160766;27;19917;-38
2023/04/26 10:20:07;;;;;;;;;;;9.30;99.90;;;;;;5175548;27;19911;-37
2023/04/26 10:22:42;;;;;;;;;;;9.30;99.90;;;;;;5175480;27;20450;-37
2023/04/26 10:25:08;;;;;;;;;;;9.40;99.90;;;;;;5174745;27;20276;-38
2023/04/26 10:27:43;;;;;;;;;;;9.40;99.90;;;;;;5175434;27;19907;-38
2023/04/26 10:30:16;;;;;;;;;;;9.50;99.90;;;;;;5174251;27;19919;-38
2023/04/26 10:32:50;;;;;;;;;;;9.50;99.90;;;;;;5155743;27;19914;-37
2023/04/26 10:35:17;;;;;;;;;;;9.60;99.90;;;;;;5154429;27;19942;-37
2023/04/26 10:37:58;;;;;;;;;;;9.60;99.90;;;;;;5174125;27;19918;-37
2023/04/26 10:40:25;;;;;;;;;;;9.60;99.90;;;;;;5175538;27;19923;-38
2023/04/26 10:43:17;;;;;;;;;;;9.70;99.90;;;;;;5176736;27;19907;-37
2023/04/26 10:45:43;;;;;;;;;;;9.80;99.90;;;;;;5178313;27;19913;-38
2023/04/26 10:48:18;;;;;;;;;;;10.00;99.90;;;;;;5169186;27;19918;-38
2023/04/26 10:51:07;;;;;;;;;;;10.00;99.90;;;;;;5163757;27;20033;-37
2023/04/26 10:53:47;;;;;;;;;;;10.00;99.90;;;;;;5178566;27;20418;-38
2023/04/26 10:56:22;;;;;;;;;;;9.90;99.90;;;;;;5178811;27;19907;-38
2023/04/26 10:58:48;;;;;;;;;;;9.90;99.90;;;;;;5169169;27;19955;-37
2023/04/26 11:01:15;;;;;;;;;;;9.90;99.90;;;;;;5160163;27;19907;-37
2023/04/26 11:03:41;;;;;;;;;;;10.00;99.90;;;;;;5159904;27;19957;-37
2023/04/26 11:06:08;;;;;;;;;;;10.00;99.90;;;;;;5166027;27;19946;-39
2023/04/26 11:08:35;;;;;;;;;;;10.00;99.90;;;;;;5166130;27;20266;-37
2023/04/26 11:11:01;;;;;;;;;;;10.10;99.90;;;;;;5167212;27;19919;-38
2023/04/26 11:13:29;;;;;;;;;;;10.10;99.90;;;;;;5167825;27;19918;-38
2023/04/26 11:16:02;;;;;;;;;;;10.10;99.90;;;;;;5156423;27;19914;-39
2023/04/26 11:18:29;;;;;;;;;;;10.00;99.90;;;;;;5159889;27;19917;-38
2023/04/26 11:20:54;;;;;;;;;;;10.00;99.90;;;;;;5162511;27;19907;-37
2023/04/26 11:23:21;;;;;;;;;;;9.90;99.90;;;;;;5164049;27;19918;-38
2023/04/26 11:25:47;;;;;;;;;;;9.90;99.90;;;;;;5157021;27;19967;-38
2023/04/26 11:28:13;;;;;;;;;;;9.90;99.90;;;;;;5155719;27;19915;-37
2023/04/26 11:30:38;;;;;;;;;;;10.00;99.90;;;;;;5168387;27;19922;-37
2023/04/26 11:33:04;;;;;;;;;;;10.00;99.90;;;;;;5163549;27;20430;-37
2023/04/26 11:35:32;;;;;;;;;;;10.10;99.90;;;;;;5165805;27;19921;-37
2023/04/26 11:37:59;;;;;;;;;;;10.20;99.90;;;;;;5164066;27;19911;-38
2023/04/26 11:40:26;;;;;;;;;;;10.30;99.90;;;;;;5173713;27;19907;-38
2023/04/26 11:42:52;;;;;;;;;;;10.40;99.90;;;;;;5165371;27;19915;-38
2023/04/26 11:45:17;;;;;;;;;;;10.40;99.90;;;;;;5159168;27;19918;-38
2023/04/26 11:47:43;;;;;;;;;;;10.40;99.90;;;;;;5177328;27;19913;-38
2023/04/26 11:50:09;;;;;;;;;;;10.50;99.90;;;;;;5176291;27;19907;-37
2023/04/26 11:52:35;;;;;;;;;;;10.50;99.90;;;;;;5176109;27;19922;-38
2023/04/26 11:55:03;;;;;;;;;;;10.70;99.90;;;;;;5167213;27;19963;-37
2023/04/26 11:57:29;;;;;;;;;;;10.80;99.90;;;;;;5162636;27;19906;-37
2023/04/26 12:00:05;;;;;;;;;;;11.00;99.90;;;;;;5176808;27;19918;-38
2023/04/26 12:02:31;;;;;;;;;;;11.10;99.90;;;;;;5158161;27;19993;-38
2023/04/26 12:04:59;;;;;;;;;;;11.30;99.90;;;;;;5155816;27;20010;-38
2023/04/26 12:07:26;;;;;;;;;;;11.40;99.90;;;;;;5156240;27;19907;-37
2023/04/26 12:09:51;;;;;;;;;;;11.30;99.90;;;;;;5155595;27;20266;-37
2023/04/26 12:12:17;;;;;;;;;;;11.40;99.90;;;;;;5166183;27;19918;-37
2023/04/26 12:14:44;;;;;;;;;;;11.70;99.90;;;;;;5160802;27;19994;-38
2023/04/26 12:17:09;;;;;;;;;;;11.90;99.90;;;;;;5163974;27;19907;-37
2023/04/26 12:19:38;;;;;;;;;;;12.00;99.90;;;;;;5157277;27;20055;-37
2023/04/26 12:22:04;;;;;;;;;;;12.10;99.90;;;;;;5173675;27;20143;-37
2023/04/26 12:24:35;;;;;;;;;;;12.30;99.90;;;;;;5160789;27;19911;-38
2023/04/26 12:27:03;;;;;;;;;;;12.40;99.90;;;;;;5164770;27;19907;-38
2023/04/26 12:29:29;;;;;;;;;;;12.20;99.90;;;;;;5155252;27;20392;-38
2023/04/26 12:31:55;;;;;;;;;;;12.00;99.90;;;;;;5154478;27;20009;-38
2023/04/26 12:34:21;;;;;;;;;;;11.80;99.90;;;;;;5158392;27;20015;-37
2023/04/26 12:36:46;;;;;;;;;;;11.70;99.90;;;;;;5161489;27;19913;-39
2023/04/26 12:39:13;;;;;;;;;;;11.60;99.90;;;;;;5173624;27;19907;-38
2023/04/26 12:41:39;;;;;;;;;;;11.40;99.90;;;;;;5175271;27;20365;-38
2023/04/26 12:44:05;;;;;;;;;;;11.40;99.90;;;;;;5173570;27;19906;-38
2023/04/26 12:46:31;;;;;;;;;;;11.20;99.90;;;;;;5173554;27;19993;-37
2023/04/26 12:48:56;;;;;;;;;;;11.20;99.90;;;;;;5175370;27;19974;-38
2023/04/26 12:51:21;;;;;;;;;;;11.10;99.90;;;;;;5174533;27;20005;-37
2023/04/26 12:53:47;;;;;;;;;;;11.20;99.90;;;;;;5176006;27;19907;-38
2023/04/26 12:56:15;;;;;;;;;;;11.20;99.90;;;;;;5175794;27;19907;-38
2023/04/26 12:58:40;;;;;;;;;;;11.10;99.00;;;;;;5175209;27;19907;-38
2023/04/26 13:01:05;;;;;;;;;;;11.20;99.90;;;;;;5175605;27;19917;-37
2023/04/26 13:03:31;;;;;;;;;;;11.00;99.90;;;;;;5175732;27;20365;-37
2023/04/26 13:05:56;;;;;;;;;;;10.90;99.90;;;;;;5174176;27;19907;-38
2023/04/26 13:08:23;;;;;;;;;;;10.80;99.90;;;;;;5175991;27;19953;-39
2023/04/26 13:10:48;;;;;;;;;;;10.80;99.90;;;;;;5175589;27;19915;-38
2023/04/26 13:13:14;;;;;;;;;;;10.70;99.90;;;;;;5174697;27;20429;-37
2023/04/26 13:15:39;;;;;;;;;;;10.60;99.90;;;;;;5175588;27;19949;-37
2023/04/26 13:18:05;;;;;;;;;;;10.50;99.90;;;;;;5175571;27;19932;-38
2023/04/26 13:20:30;;;;;;;;;;;10.40;99.90;;;;;;5174879;27;19950;-38
2023/04/26 13:22:56;;;;;;;;;;;10.30;99.90;;;;;;5175146;27;20409;-37
2023/04/26 13:25:22;;;;;;;;;;;10.20;99.90;;;;;;5175449;27;19906;-38
2023/04/26 13:27:47;;;;;;;;;;;10.20;99.90;;;;;;5174685;27;19921;-37
2023/04/26 13:30:13;;;;;;;;;;;10.00;99.90;;;;;;5174868;27;20388;-37
2023/04/26 13:32:39;;;;;;;;;;;10.00;99.90;;;;;;5175375;27;19914;-38
2023/04/26 13:35:04;;;;;;;;;;;9.90;99.90;;;;;;5174409;27;20342;-37
2023/04/26 13:37:30;;;;;;;;;;;9.90;99.90;;;;;;5175339;27;19907;-38
2023/04/26 13:39:57;;;;;;;;;;;9.90;99.90;;;;;;5175214;27;19911;-38
2023/04/26 13:42:22;;;;;;;;;;;9.80;99.90;;;;;;5174395;27;19918;-38
2023/04/26 13:44:48;;;;;;;;;;;9.80;99.90;;;;;;5175208;27;19907;-38
2023/04/26 13:47:13;;;;;;;;;;;9.80;99.90;;;;;;5162751;27;19915;-37
2023/04/26 13:49:40;;;;;;;;;;;9.80;99.90;;;;;;5173854;27;20373;-37
2023/04/26 13:52:06;;;;;;;;;;;9.80;99.90;;;;;;5172635;27;20025;-37
2023/04/26 13:54:31;;;;;;;;;;;9.90;99.90;;;;;;5172987;27;20006;-38
2023/04/26 13:56:57;;;;;;;;;;;9.90;99.90;;;;;;5175684;27;20420;-37
2023/04/26 13:59:22;;;;;;;;;;;9.90;99.90;;;;;;5167617;27;19947;-37
2023/04/26 14:01:48;;;;;;;;;;;10.00;99.90;;;;;;5171259;27;19915;-37
2023/04/26 14:04:13;;;;;;;;;;;10.00;99.90;;;;;;5174791;27;20400;-37
2023/04/26 14:06:39;;;;;;;;;;;10.10;99.90;;;;;;5175043;27;19938;-37
2023/04/26 14:09:04;;;;;;;;;;;10.20;99.90;;;;;;5174118;27;20343;-37
2023/04/26 14:11:30;;;;;;;;;;;10.20;99.90;;;;;;5168322;27;19971;-38
2023/04/26 14:13:55;;;;;;;;;;;10.20;99.90;;;;;;5175678;27;19995;-37
2023/04/26 14:16:24;;;;;;;;;;;10.30;99.90;;;;;;5163984;27;19979;-37
2023/04/26 14:18:50;;;;;;;;;;;10.30;99.90;;;;;;5169389;27;19907;-37
2023/04/26 14:21:16;;;;;;;;;;;10.30;99.90;;;;;;5168940;27;20010;-37